Time;durP1;ratioP1;P1;durP2;ratioP2;P2;SDS_P1;SDS_P2;PMS_P1;PMS_P2;Temp;Humidity;BMP_temperature;BMP_pressure;BME280_temperature;BME280_humidity;BME280_pressure;Samples;Min_cycle;Max_cycle;Signal;HPM_P1;HPM_P2
2021/10/08 00:01:45;;;;;;;2.55;1.65;;;;;;;9.98;84.59;93881.91;5073061;28;20032;-49
2021/10/08 00:04:10;;;;;;;2.08;1.40;;;;;;;9.98;84.84;93886.66;5073344;28;20029;-48
2021/10/08 00:06:36;;;;;;;1.75;1.30;;;;;;;10.03;83.71;93883.78;5073117;28;20028;-49
2021/10/08 00:09:01;;;;;;;2.30;1.70;;;;;;;9.94;84.30;93884.22;5073150;28;20024;-48
2021/10/08 00:11:27;;;;;;;2.75;1.60;;;;;;;9.97;84.60;93893.44;5073049;28;20427;-48
2021/10/08 00:13:53;;;;;;;1.52;1.38;;;;;;;10.03;84.85;93903.09;5072838;28;20154;-49
2021/10/08 00:16:19;;;;;;;4.32;1.10;;;;;;;9.98;83.35;93906.72;5073202;28;20052;-49
2021/10/08 00:18:45;;;;;;;1.38;1.27;;;;;;;9.87;82.83;93893.88;5072594;28;20125;-48
2021/10/08 00:21:11;;;;;;;3.55;1.65;;;;;;;9.92;82.09;93895.78;5072923;28;20043;-50
2021/10/08 00:23:36;;;;;;;1.33;1.05;;;;;;;9.96;83.16;93891.97;5072895;28;20032;-48
2021/10/08 00:26:02;;;;;;;2.05;0.98;;;;;;;9.93;82.95;93866.94;5072778;28;20028;-50
2021/10/08 00:28:28;;;;;;;1.13;1.00;;;;;;;10.10;83.60;93880.38;5072676;28;20480;-50
2021/10/08 00:30:53;;;;;;;1.70;1.50;;;;;;;10.19;83.84;93877.19;5072362;28;20032;-49
2021/10/08 00:33:18;;;;;;;1.20;1.10;;;;;;;10.22;84.03;93886.41;5072553;28;20028;-48
2021/10/08 00:35:44;;;;;;;5.68;2.72;;;;;;;10.22;82.78;93873.34;5071601;28;20025;-48
2021/10/08 00:38:10;;;;;;;3.78;3.20;;;;;;;10.23;82.67;93874.09;5072380;28;20032;-50
2021/10/08 00:40:39;;;;;;;2.22;1.77;;;;;;;10.20;82.90;93864.84;5072754;28;20036;-50
2021/10/08 00:43:04;;;;;;;;;;;;;;;10.22;83.44;93870.56;5073198;28;20032;-48
2021/10/08 00:45:30;;;;;;;5.70;4.25;;;;;;;10.15;84.04;93871.25;5072633;28;20399;-49
2021/10/08 00:48:01;;;;;;;1.33;1.02;;;;;;;10.10;83.03;93865.81;5072602;28;20136;-49
2021/10/08 00:50:27;;;;;;;1.05;0.68;;;;;;;10.06;80.60;93863.41;5072249;28;20653;-48
2021/10/08 00:52:52;;;;;;;1.88;0.80;;;;;;;10.05;81.06;93874.97;5072439;28;20029;-52
2021/10/08 00:55:18;;;;;;;1.35;0.80;;;;;;;9.98;82.68;93854.31;5072167;28;20029;-50
2021/10/08 00:57:48;;;;;;;0.85;0.65;;;;;;;10.12;81.77;93869.56;5072364;28;20507;-48
2021/10/08 01:00:15;;;;;;;0.80;0.70;;;;;;;10.06;82.08;93857.88;5072001;28;20025;-49
2021/10/08 01:02:41;;;;;;;0.73;0.70;;;;;;;10.11;83.26;93865.34;5072265;28;20107;-50
2021/10/08 01:05:07;;;;;;;1.45;0.80;;;;;;;10.04;81.77;93868.72;5070786;28;20090;-49
2021/10/08 01:07:32;;;;;;;1.50;0.68;;;;;;;10.13;82.17;93870.31;5072076;28;20480;-49
2021/10/08 01:09:57;;;;;;;1.35;0.70;;;;;;;10.15;82.92;93876.03;5071808;28;20033;-48
2021/10/08 01:12:23;;;;;;;0.60;0.60;;;;;;;10.12;82.73;93886.13;5072118;28;20029;-49
2021/10/08 01:14:48;;;;;;;2.50;0.80;;;;;;;10.24;82.63;93881.84;5070503;28;20024;-49
2021/10/08 01:17:17;;;;;;;0.93;0.80;;;;;;;10.31;82.02;93874.94;5071814;28;20099;-48
2021/10/08 01:19:42;;;;;;;6.95;0.60;;;;;;;10.24;81.55;93868.06;5071500;28;20103;-48
2021/10/08 01:22:08;;;;;;;0.47;0.47;;;;;;;10.31;81.92;93866.66;5071412;28;20135;-47
2021/10/08 01:24:33;;;;;;;1.13;0.60;;;;;;;10.30;82.52;93860.38;5071798;28;20036;-49
2021/10/08 01:27:03;;;;;;;1.77;0.60;;;;;;;10.29;81.99;93867.16;5071597;28;20024;-48
2021/10/08 01:29:29;;;;;;;0.50;0.50;;;;;;;10.29;82.71;93872.69;5071697;28;20401;-49
2021/10/08 01:31:54;;;;;;;0.40;0.40;;;;;;;10.35;83.09;93876.06;5071294;28;20059;-49
2021/10/08 01:34:20;;;;;;;2.25;0.75;;;;;;;10.33;82.76;93877.88;5071281;28;20037;-49
2021/10/08 01:36:45;;;;;;;0.50;0.50;;;;;;;10.36;82.35;93879.56;5071592;28;20090;-49
2021/10/08 01:39:11;;;;;;;1.50;0.82;;;;;;;10.36;82.19;93891.34;5071414;28;20024;-49
2021/10/08 01:41:36;;;;;;;0.38;0.38;;;;;;;10.18;79.95;93889.50;5071539;28;20400;-50
2021/10/08 01:44:01;;;;;;;0.80;0.70;;;;;;;10.14;81.51;93883.56;5071099;28;20036;-50
2021/10/08 01:46:27;;;;;;;0.52;0.52;;;;;;;10.19;81.99;93888.22;5070969;28;20025;-49
2021/10/08 01:48:52;;;;;;;0.70;0.70;;;;;;;10.17;82.20;93885.25;5071309;28;20024;-49
2021/10/08 01:51:18;;;;;;;3.25;0.65;;;;;;;10.10;81.54;93885.88;5071242;28;20055;-49
2021/10/08 01:53:44;;;;;;;0.73;0.50;;;;;;;10.14;80.39;93874.53;5070922;28;20024;-48
2021/10/08 01:56:09;;;;;;;5.80;0.80;;;;;;;10.13;81.94;93870.31;5070921;28;20085;-51
2021/10/08 01:58:35;;;;;;;1.60;0.60;;;;;;;10.19;82.86;93868.91;5070805;28;20024;-49
2021/10/08 02:01:00;;;;;;;0.63;0.50;;;;;;;9.96;82.20;93839.56;5070826;28;20027;-48
2021/10/08 02:03:27;;;;;;;0.82;0.80;;;;;;;10.13;81.63;93860.03;5070777;28;20024;-48
2021/10/08 02:05:52;;;;;;;0.75;0.75;;;;;;;10.14;82.51;93857.97;5070864;28;20029;-49
2021/10/08 02:08:17;;;;;;;1.35;0.90;;;;;;;10.13;83.14;93864.78;5070991;28;20051;-49
2021/10/08 02:10:43;;;;;;;0.60;0.60;;;;;;;10.18;83.45;93866.69;5070846;28;20428;-50
2021/10/08 02:13:08;;;;;;;0.80;0.80;;;;;;;10.15;82.43;93865.75;5070974;28;20419;-49
2021/10/08 02:15:34;;;;;;;0.93;0.80;;;;;;;10.10;82.67;93854.78;5070847;28;20036;-48
2021/10/08 02:17:59;;;;;;;1.45;0.98;;;;;;;10.03;82.16;93847.91;5070864;28;20070;-50
2021/10/08 02:20:24;;;;;;;2.40;1.02;;;;;;;9.98;82.61;93850.81;5070453;28;20028;-51
2021/10/08 02:22:50;;;;;;;5.05;0.82;;;;;;;9.98;82.93;93848.03;5070248;28;20549;-52
2021/10/08 02:25:15;;;;;;;1.27;0.90;;;;;;;10.02;82.10;93863.00;5070585;28;20032;-50
2021/10/08 02:27:41;;;;;;;4.97;1.08;;;;;;;9.99;81.13;93866.81;5070433;28;20080;-50
2021/10/08 02:30:06;;;;;;;0.90;0.90;;;;;;;9.96;80.82;93856.88;5070661;28;20029;-48
2021/10/08 02:32:32;;;;;;;2.70;1.10;;;;;;;9.90;81.91;93850.72;5070652;28;20472;-49
2021/10/08 02:34:58;;;;;;;2.53;1.05;;;;;;;9.87;81.14;93849.75;5070466;28;20028;-48
2021/10/08 02:37:23;;;;;;;2.80;0.93;;;;;;;9.88;81.75;93851.25;5070330;28;20036;-51
2021/10/08 02:39:48;;;;;;;4.30;1.10;;;;;;;9.93;82.00;93847.63;5070379;28;20021;-48
2021/10/08 02:42:14;;;;;;;2.13;1.08;;;;;;;9.80;81.98;93850.44;5070603;28;20078;-47
2021/10/08 02:44:40;;;;;;;1.85;1.23;;;;;;;9.83;82.52;93843.13;5070267;28;20107;-49
2021/10/08 02:47:05;;;;;;;2.10;1.13;;;;;;;9.88;82.70;93842.97;5070272;28;20040;-48
2021/10/08 02:49:31;;;;;;;1.45;1.00;;;;;;;9.93;82.88;93855.16;5070182;28;20028;-47
2021/10/08 02:51:56;;;;;;;1.65;0.82;;;;;;;9.90;81.23;93848.69;5070469;28;20039;-48
2021/10/08 02:54:22;;;;;;;1.58;1.10;;;;;;;9.98;81.17;93859.81;5070471;28;20051;-48
2021/10/08 02:56:47;;;;;;;5.47;1.60;;;;;;;10.02;82.31;93865.75;5070052;28;20031;-48
2021/10/08 02:59:14;;;;;;;1.05;0.98;;;;;;;9.91;80.70;93871.50;5071917;28;20119;-49
2021/10/08 03:01:39;;;;;;;4.03;1.23;;;;;;;9.93;81.24;93866.94;5074615;28;20033;-50
2021/10/08 03:04:05;;;;;;;2.53;1.17;;;;;;;9.89;81.37;93865.78;5074488;28;20146;-48
2021/10/08 03:06:31;;;;;;;2.85;0.90;;;;;;;9.91;81.90;93863.22;5073333;28;20033;-50
2021/10/08 03:08:56;;;;;;;3.53;1.05;;;;;;;9.90;81.83;93862.50;5074349;28;20473;-50
2021/10/08 03:11:23;;;;;;;5.10;1.70;;;;;;;9.90;81.83;93870.00;5074283;28;20032;-51
2021/10/08 03:13:48;;;;;;;0.80;0.80;;;;;;;9.88;81.23;93875.31;5073995;28;20487;-49
2021/10/08 03:16:14;;;;;;;9.48;2.03;;;;;;;9.89;80.94;93863.78;5073948;28;20032;-48
2021/10/08 03:18:39;;;;;;;2.65;1.17;;;;;;;9.84;82.39;93863.88;5074263;28;20025;-50
2021/10/08 03:21:05;;;;;;;1.73;1.10;;;;;;;9.93;82.54;93874.47;5073175;28;20086;-48
2021/10/08 03:23:30;;;;;;;1.17;1.15;;;;;;;9.97;80.42;93885.16;5073898;28;20021;-50
2021/10/08 03:25:56;;;;;;;1.60;1.20;;;;;;;9.99;81.20;93886.13;5074043;28;20032;-49
2021/10/08 03:28:21;;;;;;;2.55;1.30;;;;;;;10.00;82.08;93887.63;5074016;28;20020;-49
2021/10/08 03:30:47;;;;;;;1.52;1.00;;;;;;;9.99;81.07;93891.63;5073626;28;20029;-49
2021/10/08 03:33:12;;;;;;;2.17;0.93;;;;;;;10.00;81.34;93892.38;5073918;28;20031;-48
2021/10/08 03:35:42;;;;;;;1.15;1.02;;;;;;;9.95;80.21;93882.94;5073630;28;20140;-48
2021/10/08 03:38:14;;;;;;;2.30;1.20;;;;;;;9.94;81.53;93884.22;5073530;28;20503;-49
2021/10/08 03:40:41;;;;;;;2.65;1.17;;;;;;;10.03;82.52;93892.06;5073831;28;20074;-50
2021/10/08 03:43:12;;;;;;;1.60;1.38;;;;;;;10.04;83.09;93890.78;5073733;28;20496;-49
2021/10/08 03:45:49;;;;;;;3.80;1.35;;;;;;;10.06;83.46;93884.72;5073558;28;20036;-49
2021/10/08 03:51:02;;;;;;;7.28;2.95;;;;;;;10.09;83.30;93876.09;5073326;28;20635;-48
2021/10/08 03:53:28;;;;;;;4.97;1.95;;;;;;;10.10;82.78;93871.34;5073249;28;20056;-48
2021/10/08 03:55:53;;;;;;;4.60;2.35;;;;;;;10.07;83.42;93873.16;5073454;28;20067;-48
2021/10/08 03:58:19;;;;;;;4.10;2.50;;;;;;;9.97;82.88;93865.84;5073103;28;20028;-50
2021/10/08 04:00:44;;;;;;;5.30;2.92;;;;;;;10.02;83.06;93856.72;5073117;28;20028;-50
2021/10/08 04:03:10;;;;;;;4.93;3.30;;;;;;;10.05;83.31;93858.44;5073351;28;20040;-48
2021/10/08 04:05:35;;;;;;;13.80;8.52;;;;;;;10.01;82.79;93858.75;5073254;28;20424;-49
2021/10/08 04:08:01;;;;;;;9.82;6.10;;;;;;;10.03;82.53;93858.94;5073265;28;20408;-49
2021/10/08 04:10:26;;;;;;;7.53;4.57;;;;;;;9.91;81.78;93863.97;5071548;28;20032;-48
2021/10/08 04:12:52;;;;;;;14.25;7.18;;;;;;;10.07;82.00;93855.88;5073208;28;20506;-49
2021/10/08 04:15:17;;;;;;;14.32;7.13;;;;;;;10.10;81.58;93860.31;5072591;28;20480;-50
2021/10/08 04:17:43;;;;;;;12.02;6.57;;;;;;;10.17;82.17;93870.72;5071517;28;20052;-49
2021/10/08 04:20:08;;;;;;;7.38;4.57;;;;;;;10.18;82.06;93867.41;5071574;28;20024;-50
2021/10/08 04:22:34;;;;;;;7.85;3.30;;;;;;;10.21;nan;93880.16;5072524;28;20512;-50
2021/10/08 04:24:59;;;;;;;2.45;2.25;;;;;;;10.15;81.74;93878.78;5072753;28;20025;-49
2021/10/08 04:27:25;;;;;;;3.28;2.20;;;;;;;10.17;82.35;93882.50;5072857;28;20025;-48
2021/10/08 04:29:50;;;;;;;2.90;2.20;;;;;;;10.23;82.45;93885.88;5072870;28;20078;-49
2021/10/08 04:32:15;;;;;;;5.97;2.53;;;;;;;10.27;82.56;93889.03;5072864;28;20029;-49
2021/10/08 04:34:41;;;;;;;6.32;1.67;;;;;;;10.19;81.07;93890.22;5072860;28;20020;-48
2021/10/08 04:37:06;;;;;;;1.52;1.38;;;;;;;10.22;81.89;93887.13;5072606;28;20032;-49
2021/10/08 04:39:32;;;;;;;1.45;1.35;;;;;;;10.23;82.26;93891.38;5072658;28;20500;-49
2021/10/08 04:41:57;;;;;;;3.05;1.58;;;;;;;10.15;82.30;93885.06;5072712;28;20029;-49
2021/10/08 04:44:23;;;;;;;7.03;1.50;;;;;;;10.22;82.21;93886.41;5072619;28;20557;-49
2021/10/08 04:46:48;;;;;;;2.45;2.05;;;;;;;10.24;82.38;93884.59;5072355;28;20411;-49
2021/10/08 04:49:13;;;;;;;3.92;2.20;;;;;;;10.30;82.37;93885.22;5071823;28;20017;-49
2021/10/08 04:51:39;;;;;;;6.25;2.20;;;;;;;10.24;82.70;93879.09;5071209;28;20025;-50
2021/10/08 04:54:04;;;;;;;10.38;6.47;;;;;;;10.29;82.68;93883.72;5072176;28;20028;-49
2021/10/08 04:56:33;;;;;;;12.93;8.80;;;;;;;10.33;81.87;93886.88;5072154;28;20074;-48
2021/10/08 04:58:59;;;;;;;17.92;7.47;;;;;;;10.33;82.46;93877.88;5072378;28;20035;-50
2021/10/08 05:01:26;;;;;;;14.02;12.00;;;;;;;10.30;83.15;93876.94;5072241;28;20044;-48
2021/10/08 05:03:52;;;;;;;10.43;8.15;;;;;;;10.25;82.93;93872.28;5072207;28;20027;-47
2021/10/08 05:06:17;;;;;;;7.63;6.85;;;;;;;10.13;82.51;93862.78;5072223;28;20424;-50
2021/10/08 05:08:42;;;;;;;8.60;5.60;;;;;;;10.24;82.26;93862.53;5072193;28;20504;-48
2021/10/08 05:11:08;;;;;;;13.45;6.72;;;;;;;10.32;82.33;93863.34;5071964;28;20039;-49
2021/10/08 05:13:33;;;;;;;8.57;5.05;;;;;;;10.34;81.75;93863.53;5071671;28;20047;-48
2021/10/08 05:15:59;;;;;;;6.00;4.25;;;;;;;10.37;81.82;93864.50;5071691;28;20028;-49
2021/10/08 05:18:24;;;;;;;3.83;2.63;;;;;;;10.41;81.79;93873.91;5071948;28;20039;-48
2021/10/08 05:20:49;;;;;;;5.03;1.92;;;;;;;10.39;80.96;93875.72;5071561;28;20027;-49
2021/10/08 05:23:15;;;;;;;2.67;2.30;;;;;;;10.36;81.21;93877.53;5069681;28;20068;-49
2021/10/08 05:25:40;;;;;;;3.70;2.72;;;;;;;10.41;81.98;93875.94;5071694;28;20458;-49
2021/10/08 05:28:06;;;;;;;8.30;2.50;;;;;;;10.46;82.47;93877.84;5071675;28;20028;-48
2021/10/08 05:30:32;;;;;;;3.75;2.28;;;;;;;10.47;81.64;93877.28;5071333;28;20034;-49
2021/10/08 05:32:57;;;;;;;2.97;2.30;;;;;;;10.47;82.23;93884.81;5071241;28;20035;-49
2021/10/08 05:35:23;;;;;;;7.70;3.28;;;;;;;10.32;81.04;93871.63;5071279;28;20035;-50
2021/10/08 05:37:48;;;;;;;5.03;3.50;;;;;;;10.45;81.68;93887.38;5071287;28;20028;-48
2021/10/08 05:40:14;;;;;;;2.95;2.75;;;;;;;10.49;80.05;93885.78;5071150;28;20028;-48
2021/10/08 05:42:39;;;;;;;3.35;3.15;;;;;;;10.49;79.38;93891.28;5071149;28;20032;-49
2021/10/08 05:45:05;;;;;;;2.70;1.08;;;;;;;10.53;79.74;93886.19;5071078;28;20028;-50
2021/10/08 05:47:30;;;;;;;1.90;1.20;;;;;;;10.45;80.41;93890.13;5071380;28;20017;-51
2021/10/08 05:49:56;;;;;;;2.53;1.20;;;;;;;10.43;80.09;93887.94;5071265;28;20531;-48
2021/10/08 05:52:21;;;;;;;2.95;1.42;;;;;;;10.43;80.69;93885.16;5071259;28;20028;-49
2021/10/08 05:54:47;;;;;;;10.23;3.08;;;;;;;10.42;81.31;93883.66;5071189;28;20090;-50
2021/10/08 05:57:12;;;;;;;49.08;19.73;;;;;;;10.42;80.87;93880.91;5071151;28;20028;-48
2021/10/08 05:59:37;;;;;;;13.40;5.40;;;;;;;10.43;81.73;93882.41;5070820;28;20496;-51
2021/10/08 06:02:03;;;;;;;8.48;4.82;;;;;;;10.33;82.35;93862.03;5070805;28;20039;-48
2021/10/08 06:04:29;;;;;;;12.77;4.53;;;;;;;10.57;82.42;93874.78;5070293;28;20035;-49
2021/10/08 06:06:54;;;;;;;39.60;17.33;;;;;;;10.49;83.13;93879.50;5069461;28;20059;-49
2021/10/08 06:09:20;;;;;;;19.40;8.30;;;;;;;10.54;83.24;93878.63;5069285;28;20504;-48
2021/10/08 06:11:45;;;;;;;18.75;7.15;;;;;;;10.59;82.53;93872.97;5070641;28;20024;-49
2021/10/08 06:14:11;;;;;;;28.65;12.88;;;;;;;10.60;82.85;93871.69;5070907;28;20081;-48
2021/10/08 06:16:36;;;;;;;36.88;17.30;;;;;;;10.65;82.94;93864.56;5070685;28;20028;-49
2021/10/08 06:19:02;;;;;;;24.23;10.73;;;;;;;10.55;81.37;93867.03;5070552;28;20016;-48
2021/10/08 06:21:27;;;;;;;18.48;8.65;;;;;;;10.65;80.79;93859.03;5070306;28;20500;-48
2021/10/08 06:23:53;;;;;;;29.83;15.73;;;;;;;10.81;81.58;93866.16;5069580;28;20035;-49
2021/10/08 06:37:22;;;;;;;3.78;3.47;;;;;;;11.74;75.42;93881.53;5125916;27;20615;-48
2021/10/08 06:39:47;;;;;;;3.05;2.40;;;;;;;11.60;75.30;93884.94;5126011;27;20039;-49
2021/10/08 06:42:13;;;;;;;2.28;1.40;;;;;;;11.43;75.50;93882.66;5126109;27;20018;-48
2021/10/08 06:44:38;;;;;;;4.13;1.20;;;;;;;11.50;74.78;93887.47;5125192;27;20558;-48
2021/10/08 06:47:04;;;;;;;1.85;1.27;;;;;;;11.54;75.62;93887.88;5125731;27;20055;-49
2021/10/08 06:49:29;;;;;;;2.08;1.25;;;;;;;11.30;74.43;93844.03;5125998;27;20033;-50
2021/10/08 06:51:55;;;;;;;5.68;1.00;;;;;;;11.43;73.52;93886.13;5128088;27;20024;-51
2021/10/08 06:54:20;;;;;;;1.88;1.00;;;;;;;11.15;76.03;93864.03;5128434;27;20415;-50
2021/10/08 06:56:45;;;;;;;2.72;1.50;;;;;;;11.17;77.07;93880.06;5128366;27;20030;-49
2021/10/08 06:59:11;;;;;;;2.90;1.40;;;;;;;11.28;76.81;93912.97;5128110;27;20023;-51
2021/10/08 07:01:36;;;;;;;1.73;1.50;;;;;;;11.20;77.06;93912.13;5108694;27;20024;-48
2021/10/08 07:04:02;;;;;;;1.50;1.40;;;;;;;11.15;78.72;93908.22;5107825;28;20077;-50
2021/10/08 07:06:29;;;;;;;3.42;3.03;;;;;;;11.16;78.63;93915.25;5107284;28;20474;-48
2021/10/08 07:08:55;;;;;;;5.82;3.10;;;;;;;11.17;78.73;93907.72;5107649;28;20028;-49
2021/10/08 07:11:21;;;;;;;3.75;3.30;;;;;;;11.10;79.16;93889.03;5107248;28;20077;-48
2021/10/08 07:13:46;;;;;;;5.03;2.97;;;;;;;11.15;79.66;93891.66;5107545;28;20020;-49
2021/10/08 07:16:11;;;;;;;1.98;1.50;;;;;;;11.07;77.52;93912.97;5107320;28;20039;-48
2021/10/08 07:18:38;;;;;;;2.22;1.90;;;;;;;11.02;77.91;93935.94;5107119;28;20023;-49
2021/10/08 07:21:05;;;;;;;2.03;1.73;;;;;;;11.04;78.68;93935.44;5107421;28;20028;-49
2021/10/08 07:23:32;;;;;;;4.70;2.65;;;;;;;11.03;79.19;93925.63;5106845;28;20035;-49
2021/10/08 07:25:58;;;;;;;4.57;2.90;;;;;;;11.10;79.24;93917.44;5106573;28;20402;-48
2021/10/08 07:28:23;;;;;;;7.43;5.13;;;;;;;11.16;79.25;93911.75;5107001;28;20085;-49
2021/10/08 07:30:49;;;;;;;6.05;4.95;;;;;;;11.17;79.17;93902.94;5107275;28;20023;-48
2021/10/08 07:33:15;;;;;;;2.95;2.65;;;;;;;11.04;78.35;93877.41;5106917;28;20034;-48
2021/10/08 07:35:41;;;;;;;1.90;1.27;;;;;;;11.12;77.73;93886.47;5106455;28;20042;-49
2021/10/08 07:38:06;;;;;;;9.68;5.38;;;;;;;11.14;78.20;93892.19;5094932;28;20602;-47
2021/10/08 07:40:31;;;;;;;16.92;8.68;;;;;;;11.07;78.58;93888.09;5114184;28;20027;-48
2021/10/08 07:42:57;;;;;;;11.90;7.47;;;;;;;11.11;78.86;93885.72;5113498;28;20027;-49
2021/10/08 07:45:22;;;;;;;10.90;5.50;;;;;;;11.07;78.99;93898.41;5113365;28;20028;-48
2021/10/08 07:47:48;;;;;;;1.60;1.50;;;;;;;11.03;79.62;93915.34;5113483;28;20030;-48
2021/10/08 07:50:14;;;;;;;5.18;3.50;;;;;;;10.68;79.30;93916.69;5113442;28;20024;-50
2021/10/08 07:52:41;;;;;;;5.20;3.45;;;;;;;10.42;80.63;93930.59;5113627;28;20019;-48
2021/10/08 07:55:08;;;;;;;5.20;4.30;;;;;;;10.33;81.39;93931.03;5113243;28;20023;-49
2021/10/08 07:57:35;;;;;;;7.57;4.43;;;;;;;10.34;81.23;93940.06;5112268;28;20019;-51
2021/10/08 08:00:00;;;;;;;6.68;3.65;;;;;;;10.21;82.23;93934.59;5113188;28;20015;-49
2021/10/08 08:02:28;;;;;;;3.35;2.40;;;;;;;10.08;82.72;93940.84;5113459;28;20027;-50
2021/10/08 08:04:55;;;;;;;4.30;2.60;;;;;;;10.04;82.90;93950.72;5113079;28;20031;-49
2021/10/08 08:07:21;;;;;;;6.78;4.82;;;;;;;10.04;83.88;93954.22;5111795;28;20056;-49
2021/10/08 08:09:47;;;;;;;12.77;9.10;;;;;;;10.04;85.06;93947.97;5113012;28;20106;-48
2021/10/08 08:12:12;;;;;;;15.52;9.18;;;;;;;10.19;85.02;93957.22;5113008;28;20023;-51
2021/10/08 08:14:37;;;;;;;9.63;6.70;;;;;;;10.29;84.74;93949.97;5112848;28;20023;-49
2021/10/08 08:17:03;;;;;;;10.25;6.13;;;;;;;10.36;84.56;93943.78;5112854;28;20034;-49
2021/10/08 08:19:28;;;;;;;8.13;6.00;;;;;;;10.54;84.44;93951.16;5112861;27;20030;-49
2021/10/08 08:21:54;;;;;;;8.02;4.97;;;;;;;10.58;84.32;93948.81;5112902;28;20031;-48
2021/10/08 08:24:19;;;;;;;13.35;7.22;;;;;;;10.64;84.27;93952.19;5112730;28;20027;-50
2021/10/08 08:26:45;;;;;;;19.10;9.88;;;;;;;10.59;83.74;93958.56;5112615;28;20020;-48
2021/10/08 08:29:10;;;;;;;5.85;3.08;;;;;;;10.47;84.03;93943.53;5112779;28;20053;-49
2021/10/08 08:31:36;;;;;;;1.77;1.55;;;;;;;10.62;84.30;93956.75;5097187;28;20035;-49
2021/10/08 08:34:01;;;;;;;4.40;2.42;;;;;;;10.66;84.07;93963.44;5091926;28;20031;-49
2021/10/08 08:36:26;;;;;;;2.95;2.17;;;;;;;10.46;83.33;93966.88;5092034;28;20047;-48
2021/10/08 08:38:52;;;;;;;5.30;2.00;;;;;;;10.56;84.40;93965.19;5091089;28;20047;-50
2021/10/08 08:41:18;;;;;;;1.92;1.73;;;;;;;10.56;84.22;93976.22;5092045;28;20024;-48
2021/10/08 08:43:43;;;;;;;3.53;2.10;;;;;;;10.33;83.50;93977.97;5091132;28;20529;-50
2021/10/08 08:46:09;;;;;;;3.13;2.00;;;;;;;10.30;84.45;93989.34;5091867;28;20028;-48
2021/10/08 08:48:35;;;;;;;2.80;1.80;;;;;;;10.14;84.72;93998.69;5091124;28;20032;-48
2021/10/08 08:51:01;;;;;;;0.95;0.85;;;;;;;9.90;84.52;94003.16;5091865;28;20511;-48
2021/10/08 08:53:26;;;;;;;5.22;1.10;;;;;;;9.87;86.47;94000.72;5091811;28;20020;-48
2021/10/08 08:55:52;;;;;;;0.60;0.60;;;;;;;10.00;86.71;93989.69;5092073;28;20028;-48
2021/10/08 08:58:18;;;;;;;1.33;0.80;;;;;;;10.02;85.62;93987.13;5091937;28;20542;-49
2021/10/08 09:00:47;;;;;;;1.02;0.60;;;;;;;10.08;85.43;93978.72;5091695;28;20031;-50
2021/10/08 09:03:14;;;;;;;0.63;0.57;;;;;;;10.13;86.16;93981.41;5091935;28;20032;-49
2021/10/08 09:05:45;;;;;;;2.97;1.70;;;;;;;10.08;84.46;93968.44;5091734;28;20039;-48
2021/10/08 09:08:11;;;;;;;0.80;0.80;;;;;;;9.96;83.63;93956.16;5091355;28;20549;-48
2021/10/08 09:10:46;;;;;;;2.35;1.00;;;;;;;10.11;84.09;93981.22;5090390;28;20020;-48
2021/10/08 09:13:13;;;;;;;0.52;0.50;;;;;;;10.20;85.03;93975.22;5091760;28;20032;-47
2021/10/08 09:15:48;;;;;;;2.58;1.45;;;;;;;10.28;84.81;93980.84;5090403;28;20027;-48
2021/10/08 09:18:19;;;;;;;11.00;2.03;;;;;;;10.34;84.92;93968.41;5091106;28;20107;-49
2021/10/08 09:21:05;;;;;;;2.72;0.80;;;;;;;10.36;84.02;93973.41;5091343;28;20112;-48
2021/10/08 09:23:49;;;;;;;2.42;1.10;;;;;;;10.43;83.18;93976.25;5091212;28;20024;-49
2021/10/08 09:26:24;;;;;;;2.30;1.25;;;;;;;10.37;82.86;93986.66;5093148;28;20115;-48
2021/10/08 09:28:57;;;;;;;2.35;1.63;;;;;;;10.38;82.93;93984.66;5111810;27;20099;-48
2021/10/08 09:31:39;;;;;;;3.08;1.67;;;;;;;10.34;82.18;93990.50;5111747;28;20032;-48
2021/10/08 09:34:11;;;;;;;2.35;1.95;;;;;;;10.29;82.30;93980.31;5106708;28;20076;-48
2021/10/08 09:36:38;;;;;;;5.25;1.00;;;;;;;10.41;82.13;93986.34;5090843;28;20048;-48
2021/10/08 09:39:19;;;;;;;2.20;0.88;;;;;;;10.42;82.16;93988.56;5089984;28;20032;-48
2021/10/08 09:41:44;;;;;;;2.28;0.60;;;;;;;10.39;82.17;93981.38;5090978;28;20028;-50
2021/10/08 09:44:11;;;;;;;2.75;1.92;;;;;;;10.36;81.97;93995.47;5089552;28;20115;-48
2021/10/08 09:46:36;;;;;;;2.00;1.58;;;;;;;10.39;81.79;93994.41;5089866;28;20032;-48
2021/10/08 09:49:02;;;;;;;6.65;3.50;;;;;;;10.37;81.50;93994.22;5090995;28;20477;-48
2021/10/08 09:51:31;;;;;;;10.10;5.28;;;;;;;10.35;81.16;93997.50;5089556;28;20024;-50
2021/10/08 09:53:57;;;;;;;6.15;3.63;;;;;;;10.24;81.16;93997.00;5090723;28;20020;-48
2021/10/08 09:56:33;;;;;;;4.45;3.00;;;;;;;10.22;81.05;94011.31;5089719;28;20024;-47
2021/10/08 09:58:59;;;;;;;2.90;2.25;;;;;;;10.20;80.99;94013.88;5090922;28;20024;-47
2021/10/08 10:01:30;;;;;;;2.60;1.88;;;;;;;10.23;80.99;94018.31;5090666;28;20389;-48
2021/10/08 10:03:56;;;;;;;3.05;1.77;;;;;;;10.16;80.54;94010.69;5090569;28;20020;-49
2021/10/08 10:06:22;;;;;;;1.63;1.10;;;;;;;9.90;80.30;93997.63;5090202;28;20024;-48
2021/10/08 10:08:48;;;;;;;50.53;22.65;;;;;;;10.05;81.28;94018.44;5089483;28;20027;-49
2021/10/08 10:11:22;;;;;;;22.33;7.57;;;;;;;10.00;81.54;94014.50;5090805;28;20050;-48
2021/10/08 10:13:52;;;;;;;7.38;3.80;;;;;;;10.02;82.21;94005.69;5090791;28;20543;-48
2021/10/08 10:16:18;;;;;;;1.60;1.45;;;;;;;10.09;81.18;94013.34;5090692;28;20028;-48
2021/10/08 10:18:47;;;;;;;4.75;2.00;;;;;;;10.10;80.67;94006.53;5090441;28;20032;-47
2021/10/08 10:21:14;;;;;;;1.50;1.13;;;;;;;9.98;81.70;94008.03;5090714;28;20451;-49
2021/10/08 10:23:40;;;;;;;1.33;0.80;;;;;;;9.99;81.69;94003.97;5102036;28;20105;-48
2021/10/08 10:26:05;;;;;;;2.47;1.23;;;;;;;10.03;81.80;94004.44;5109377;28;20534;-48
2021/10/08 10:28:31;;;;;;;3.63;1.50;;;;;;;10.10;81.76;93999.00;5110625;28;20027;-48
2021/10/08 10:30:57;;;;;;;6.25;2.50;;;;;;;10.11;81.13;94003.28;5110979;28;20062;-47
2021/10/08 10:33:27;;;;;;;3.67;2.60;;;;;;;10.14;81.73;94007.72;5110850;28;20031;-48
2021/10/08 10:35:57;;;;;;;1.83;1.38;;;;;;;10.09;81.27;94000.25;5089062;28;20055;-47
2021/10/08 10:38:39;;;;;;;2.83;1.75;;;;;;;10.13;81.20;93991.72;5090140;28;20042;-47
2021/10/08 10:41:07;;;;;;;4.22;3.63;;;;;;;10.15;81.28;93976.09;5090561;28;20035;-48
2021/10/08 10:43:38;;;;;;;4.30;2.60;;;;;;;10.05;80.59;93966.03;5090394;28;20110;-48
2021/10/08 10:46:25;;;;;;;3.13;2.33;;;;;;;10.04;80.62;93956.25;5090085;28;20133;-48
2021/10/08 10:52:03;;;;;;;5.57;2.08;;;;;;;10.04;81.08;93934.94;5086237;28;20035;-47
2021/10/08 10:54:39;;;;;;;2.30;1.17;;;;;;;10.09;81.46;93938.84;5090081;28;20027;-48
2021/10/08 10:57:12;;;;;;;1.52;1.42;;;;;;;10.14;81.76;93938.00;5090362;28;20028;-47
2021/10/08 10:59:39;;;;;;;2.33;1.90;;;;;;;10.16;81.78;93930.66;5089930;28;20035;-51
2021/10/08 11:02:08;;;;;;;1.35;1.25;;;;;;;10.26;81.68;93928.97;5089154;28;20435;-49
2021/10/08 11:04:48;;;;;;;1.23;0.60;;;;;;;10.33;81.22;93922.75;5090031;28;20028;-49
2021/10/08 11:07:18;;;;;;;0.68;0.65;;;;;;;10.38;80.91;93924.66;5089975;28;20043;-47
2021/10/08 11:09:44;;;;;;;0.90;0.68;;;;;;;10.47;80.98;93931.75;5089884;28;20120;-49
2021/10/08 11:12:32;;;;;;;0.80;0.60;;;;;;;10.43;79.29;93923.81;5089785;28;20113;-49
2021/10/08 11:17:53;;;;;;;1.83;1.10;;;;;;;10.49;79.34;93929.19;5093951;28;20028;-48
2021/10/08 11:20:30;;;;;;;1.10;0.85;;;;;;;10.47;78.88;93938.03;5108596;28;20427;-49
2021/10/08 11:23:05;;;;;;;0.80;0.75;;;;;;;10.39;78.36;93936.47;5114342;28;20104;-49
2021/10/08 11:25:33;;;;;;;1.23;1.02;;;;;;;10.48;79.16;93938.78;5114111;28;20030;-49
2021/10/08 11:27:59;;;;;;;17.98;14.68;;;;;;;10.19;78.75;93942.66;5113276;28;20016;-49
2021/10/08 11:30:27;;;;;;;7.32;5.05;;;;;;;9.99;79.75;93940.53;5113889;28;20026;-48
2021/10/08 11:32:56;;;;;;;6.93;4.55;;;;;;;9.93;80.63;93949.69;5113730;28;20511;-47
2021/10/08 11:35:30;;;;;;;3.97;3.40;;;;;;;9.90;81.73;93955.50;5097612;28;20576;-48
2021/10/08 11:37:56;;;;;;;5.18;4.43;;;;;;;9.67;82.53;93926.91;5093606;28;20020;-47
2021/10/08 11:40:38;;;;;;;2.67;1.90;;;;;;;10.02;83.35;93945.00;5093203;28;20545;-48
2021/10/08 11:43:10;;;;;;;4.20;3.15;;;;;;;10.14;82.19;93943.50;5093057;28;20035;-48
2021/10/08 11:45:52;;;;;;;3.53;3.22;;;;;;;10.21;81.83;93949.13;5092414;28;20050;-49
2021/10/08 11:50:56;;;;;;;2.70;2.50;;;;;;;10.40;81.14;93941.44;5093066;28;20525;-48
2021/10/08 11:53:22;;;;;;;4.15;2.75;;;;;;;10.45;80.64;93942.59;5093032;28;20035;-47
2021/10/08 11:55:47;;;;;;;4.18;3.20;;;;;;;10.48;80.75;93952.56;5093058;28;20024;-49